Time,TemperatureF,DewpointF,PressureIn,WindDirection,WindDirectionDegrees,WindSpeedMPH,WindSpeedGustMPH,Humidity,HourlyPrecipIn,Conditions,Clouds,dailyrainin,SoftwareType,DateUTC
2013-03-31 00:03:00,78.0,-99.9,30.11,ENE,70,9.0,13.0,-999,-99.99,,,-99.99,,2013-03-31 04:03:00,
2013-03-31 00:13:00,77.0,-99.9,30.11,ENE,69,11.0,16.0,-999,-99.99,,,-99.99,,2013-03-31 04:13:00,
2013-03-31 00:23:00,77.0,-99.9,30.11,ENE,70,9.0,12.0,-999,-99.99,,,-99.99,,2013-03-31 04:23:00,
2013-03-31 00:33:00,77.0,-99.9,30.10,ENE,77,10.0,14.0,-999,-99.99,,,-99.99,,2013-03-31 04:33:00,
2013-03-31 00:43:00,78.0,-99.9,30.10,ENE,77,10.0,18.0,-999,-99.99,,,-99.99,,2013-03-31 04:43:00,
2013-03-31 00:53:00,77.0,-99.9,30.10,ENE,70,11.0,16.0,-999,-99.99,,,-99.99,,2013-03-31 04:53:00,
2013-03-31 01:02:00,77.0,-99.9,30.09,ENE,77,9.0,13.0,-999,-99.99,,,-99.99,,2013-03-31 05:02:00,
2013-03-31 01:13:00,77.0,-99.9,30.09,ENE,76,9.0,13.0,-999,-99.99,,,-99.99,,2013-03-31 05:13:00,
2013-03-31 01:22:00,77.0,-99.9,30.09,ENE,72,9.0,15.0,-999,-99.99,,,-99.99,,2013-03-31 05:22:00,
2013-03-31 01:32:00,77.0,-99.9,30.09,ENE,72,9.0,13.0,-999,-99.99,,,-99.99,,2013-03-31 05:32:00,
2013-03-31 01:42:00,77.0,-99.9,30.08,ENE,69,9.0,16.0,-999,-99.99,,,-99.99,,2013-03-31 05:42:00,
2013-03-31 01:53:00,77.0,-99.9,30.08,ENE,71,9.0,14.0,-999,-99.99,,,-99.99,,2013-03-31 05:53:00,
2013-03-31 02:02:00,77.0,-99.9,30.07,ENE,73,9.0,14.0,-999,-99.99,,,-99.99,,2013-03-31 06:02:00,
2013-03-31 02:12:00,78.0,-99.9,30.07,ENE,76,9.0,15.0,-999,-99.99,,,-99.99,,2013-03-31 06:12:00,
2013-03-31 02:23:00,77.0,-99.9,30.06,ENE,62,11.0,15.0,-999,-99.99,,,-99.99,,2013-03-31 06:23:00,
2013-03-31 02:33:00,76.0,-99.9,30.06,ENE,74,9.0,17.0,-999,-99.99,,,-99.99,,2013-03-31 06:33:00,
2013-03-31 02:42:00,77.0,-99.9,30.06,ENE,71,9.0,14.0,-999,-99.99,,,-99.99,,2013-03-31 06:42:00,
2013-03-31 02:53:00,77.0,-99.9,30.06,ENE,73,8.0,19.0,-999,-99.99,,,-99.99,,2013-03-31 06:53:00,
2013-03-31 03:02:00,76.0,-99.9,30.06,ENE,73,9.0,11.0,-999,-99.99,,,-99.99,,2013-03-31 07:02:00,
2013-03-31 03:12:00,75.0,-99.9,30.05,East,79,5.0,11.0,-999,-99.99,,,-99.99,,2013-03-31 07:12:00,
2013-03-31 03:22:00,76.0,-99.9,30.04,ENE,69,11.0,17.0,-999,-99.99,,,-99.99,,2013-03-31 07:22:00,
2013-03-31 03:33:00,77.0,-99.9,30.04,ENE,73,12.0,15.0,-999,-99.99,,,-99.99,,2013-03-31 07:33:00,
2013-03-31 03:43:00,77.0,-99.9,30.04,ENE,71,10.0,15.0,-999,-99.99,,,-99.99,,2013-03-31 07:43:00,
2013-03-31 03:53:00,78.0,-99.9,30.04,ENE,70,11.0,16.0,-999,-99.99,,,-99.99,,2013-03-31 07:53:00,
2013-03-31 04:02:00,77.0,-99.9,30.04,ENE,69,12.0,15.0,-999,-99.99,,,-99.99,,2013-03-31 08:02:00,
2013-03-31 04:12:00,78.0,-99.9,30.04,ENE,70,10.0,14.0,-999,-99.99,,,-99.99,,2013-03-31 08:12:00,
2013-03-31 04:22:00,78.0,-99.9,30.04,ENE,74,9.0,15.0,-999,-99.99,,,-99.99,,2013-03-31 08:22:00,
2013-03-31 04:32:00,78.0,-99.9,30.04,ENE,68,10.0,14.0,-999,-99.99,,,-99.99,,2013-03-31 08:32:00,
2013-03-31 04:43:00,78.0,-99.9,30.04,ENE,70,10.0,14.0,-999,-99.99,,,-99.99,,2013-03-31 08:43:00,
2013-03-31 04:52:00,78.0,-99.9,30.04,ENE,73,10.0,13.0,-999,-99.99,,,-99.99,,2013-03-31 08:52:00,
2013-03-31 05:02:00,78.0,-99.9,30.05,ENE,75,9.0,16.0,-999,-99.99,,,-99.99,,2013-03-31 09:02:00,
2013-03-31 05:12:00,78.0,-99.9,30.05,ENE,73,9.0,15.0,-999,-99.99,,,-99.99,,2013-03-31 09:12:00,
2013-03-31 05:22:00,78.0,-99.9,30.05,ENE,72,9.0,15.0,-999,-99.99,,,-99.99,,2013-03-31 09:22:00,
2013-03-31 05:33:00,78.0,-99.9,30.05,ENE,74,9.0,15.0,-999,-99.99,,,-99.99,,2013-03-31 09:33:00,
2013-03-31 05:43:00,78.0,-99.9,30.05,ENE,73,10.0,12.0,-999,-99.99,,,-99.99,,2013-03-31 09:43:00,
2013-03-31 05:53:00,78.0,-99.9,30.05,ENE,75,10.0,15.0,-999,-99.99,,,-99.99,,2013-03-31 09:53:00,
2013-03-31 06:03:00,78.0,-99.9,30.06,ENE,75,10.0,14.0,-999,-99.99,,,-99.99,,2013-03-31 10:03:00,
2013-03-31 06:13:00,78.0,-99.9,30.06,ENE,74,10.0,17.0,-999,-99.99,,,-99.99,,2013-03-31 10:13:00,
2013-03-31 06:24:00,78.0,-99.9,30.06,ENE,72,11.0,19.0,-999,-99.99,,,-99.99,,2013-03-31 10:24:00,
2013-03-31 06:33:00,78.0,-99.9,30.06,ENE,76,11.0,17.0,-999,-99.99,,,-99.99,,2013-03-31 10:33:00,
2013-03-31 06:42:00,78.0,-99.9,30.06,ENE,70,11.0,15.0,-999,-99.99,,,-99.99,,2013-03-31 10:42:00,
2013-03-31 06:53:00,78.0,-99.9,30.07,ENE,71,11.0,18.0,-999,-99.99,,,-99.99,,2013-03-31 10:53:00,
2013-03-31 07:03:00,78.0,-99.9,30.07,ENE,67,11.0,15.0,-999,-99.99,,,-99.99,,2013-03-31 11:03:00,
2013-03-31 07:12:00,78.0,-99.9,30.07,ENE,77,11.0,19.0,-999,-99.99,,,-99.99,,2013-03-31 11:12:00,
2013-03-31 07:23:00,78.0,-99.9,30.08,ENE,77,9.0,17.0,-999,-99.99,,,-99.99,,2013-03-31 11:23:00,
2013-03-31 07:33:00,78.0,-99.9,30.08,ENE,71,12.0,19.0,-999,-99.99,,,-99.99,,2013-03-31 11:33:00,
2013-03-31 07:43:00,78.0,-99.9,30.08,East,90,14.0,23.0,-999,-99.99,,,-99.99,,2013-03-31 11:43:00,
2013-03-31 07:53:00,78.0,-99.9,30.09,ENE,76,10.0,15.0,-999,-99.99,,,-99.99,,2013-03-31 11:53:00,
2013-03-31 08:03:00,78.0,-99.9,30.09,East,80,11.0,20.0,-999,-99.99,,,-99.99,,2013-03-31 12:03:00,
2013-03-31 08:12:00,78.0,-99.9,30.09,East,81,12.0,22.0,-999,-99.99,,,-99.99,,2013-03-31 12:12:00,
2013-03-31 08:22:00,78.0,-99.9,30.09,East,79,11.0,18.0,-999,-99.99,,,-99.99,,2013-03-31 12:22:00,
2013-03-31 08:33:00,76.0,-99.9,30.10,ENE,77,13.0,25.0,-999,-99.99,,,-99.99,,2013-03-31 12:33:00,
2013-03-31 08:42:00,76.0,-99.9,30.10,East,83,11.0,20.0,-999,-99.99,,,-99.99,,2013-03-31 12:42:00,
2013-03-31 08:53:00,78.0,-99.9,30.10,ENE,77,8.0,15.0,-999,-99.99,,,-99.99,,2013-03-31 12:53:00,
2013-03-31 09:02:00,78.0,-99.9,30.10,ENE,77,11.0,19.0,-999,-99.99,,,-99.99,,2013-03-31 13:02:00,
2013-03-31 09:12:00,79.0,-99.9,30.10,East,89,13.0,21.0,-999,-99.99,,,-99.99,,2013-03-31 13:12:00,
2013-03-31 09:23:00,79.0,-99.9,30.10,East,80,10.0,18.0,-999,-99.99,,,-99.99,,2013-03-31 13:23:00,
2013-03-31 09:33:00,79.0,-99.9,30.10,East,82,9.0,18.0,-999,-99.99,,,-99.99,,2013-03-31 13:33:00,
2013-03-31 09:42:00,78.0,-99.9,30.10,ENE,78,10.0,20.0,-999,-99.99,,,-99.99,,2013-03-31 13:42:00,
2013-03-31 09:53:00,79.0,-99.9,30.10,ENE,76,12.0,19.0,-999,-99.99,,,-99.99,,2013-03-31 13:53:00,
2013-03-31 10:03:00,79.0,-99.9,30.10,ENE,76,12.0,18.0,-999,-99.99,,,-99.99,,2013-03-31 14:03:00,
2013-03-31 10:12:00,79.0,-99.9,30.10,ENE,78,12.0,17.0,-999,-99.99,,,-99.99,,2013-03-31 14:12:00,
2013-03-31 10:23:00,80.0,-99.9,30.10,East,79,10.0,18.0,-999,-99.99,,,-99.99,,2013-03-31 14:23:00,
2013-03-31 10:33:00,79.0,-99.9,30.11,ENE,77,11.0,16.0,-999,-99.99,,,-99.99,,2013-03-31 14:33:00,
2013-03-31 10:43:00,80.0,-99.9,30.11,East,81,11.0,20.0,-999,-99.99,,,-99.99,,2013-03-31 14:43:00,
2013-03-31 10:53:00,79.0,-99.9,30.11,East,82,14.0,23.0,-999,-99.99,,,-99.99,,2013-03-31 14:53:00,
2013-03-31 11:03:00,77.0,-99.9,30.11,ESE,107,19.0,31.0,-999,-99.99,,,-99.99,,2013-03-31 15:03:00,
2013-03-31 11:13:00,77.0,-99.9,30.11,ESE,116,18.0,24.0,-999,-99.99,,,-99.99,,2013-03-31 15:13:00,
2013-03-31 11:23:00,78.0,-99.9,30.11,East,99,13.0,15.0,-999,-99.99,,,-99.99,,2013-03-31 15:23:00,
2013-03-31 11:34:00,77.0,-99.9,30.11,ESE,115,21.0,27.0,-999,-99.99,,,-99.99,,2013-03-31 15:34:00,
2013-03-31 11:44:00,76.0,-99.9,30.11,ESE,115,21.0,28.0,-999,-99.99,,,-99.99,,2013-03-31 15:44:00,
2013-03-31 11:54:00,75.0,-99.9,30.11,East,101,16.0,23.0,-999,-99.99,,,-99.99,,2013-03-31 15:54:00,
2013-03-31 12:03:00,75.0,-99.9,30.10,East,91,14.0,21.0,-999,-99.99,,,-99.99,,2013-03-31 16:03:00,
2013-03-31 12:13:00,76.0,-99.9,30.10,ESE,114,15.0,22.0,-999,-99.99,,,-99.99,,2013-03-31 16:13:00,
2013-03-31 12:23:00,77.0,-99.9,30.10,ESE,122,13.0,18.0,-999,-99.99,,,-99.99,,2013-03-31 16:23:00,
2013-03-31 12:34:00,77.0,-99.9,30.10,ESE,116,11.0,15.0,-999,-99.99,,,-99.99,,2013-03-31 16:34:00,
2013-03-31 12:43:00,78.0,-99.9,30.10,East,100,12.0,20.0,-999,-99.99,,,-99.99,,2013-03-31 16:43:00,
2013-03-31 12:54:00,78.0,-99.9,30.09,East,91,8.0,13.0,-999,-99.99,,,-99.99,,2013-03-31 16:54:00,
2013-03-31 13:03:00,78.0,-99.9,30.09,East,87,9.0,17.0,-999,-99.99,,,-99.99,,2013-03-31 17:03:00,
2013-03-31 13:13:00,78.0,-99.9,30.09,ENE,75,6.0,9.0,-999,-99.99,,,-99.99,,2013-03-31 17:13:00,
2013-03-31 13:23:00,77.0,-99.9,30.08,ENE,77,8.0,12.0,-999,-99.99,,,-99.99,,2013-03-31 17:23:00,
2013-03-31 13:33:00,76.0,-99.9,30.08,ENE,60,9.0,12.0,-999,-99.99,,,-99.99,,2013-03-31 17:33:00,
2013-03-31 13:43:00,76.0,-99.9,30.07,East,82,9.0,14.0,-999,-99.99,,,-99.99,,2013-03-31 17:43:00,
2013-03-31 13:52:00,75.0,-99.9,30.08,East,101,20.0,26.0,-999,-99.99,,,-99.99,,2013-03-31 17:52:00,
2013-03-31 14:03:00,75.0,-99.9,30.08,East,89,20.0,27.0,-999,-99.99,,,-99.99,,2013-03-31 18:03:00,
2013-03-31 14:13:00,75.0,-99.9,30.07,East,79,14.0,20.0,-999,-99.99,,,-99.99,,2013-03-31 18:13:00,
2013-03-31 14:22:00,75.0,-99.9,30.07,East,98,11.0,15.0,-999,-99.99,,,-99.99,,2013-03-31 18:22:00,
2013-03-31 14:33:00,75.0,-99.9,30.07,East,98,11.0,15.0,-999,-99.99,,,-99.99,,2013-03-31 18:33:00,
2013-03-31 14:43:00,76.0,-99.9,30.06,East,87,10.0,13.0,-999,-99.99,,,-99.99,,2013-03-31 18:43:00,
2013-03-31 14:53:00,76.0,-99.9,30.06,East,101,12.0,16.0,-999,-99.99,,,-99.99,,2013-03-31 18:53:00,
2013-03-31 15:03:00,76.0,-99.9,30.06,East,96,12.0,14.0,-999,-99.99,,,-99.99,,2013-03-31 19:03:00,
2013-03-31 15:12:00,77.0,-99.9,30.06,ESE,103,11.0,14.0,-999,-99.99,,,-99.99,,2013-03-31 19:12:00,
2013-03-31 15:22:00,77.0,-99.9,30.05,ESE,109,8.0,13.0,-999,-99.99,,,-99.99,,2013-03-31 19:22:00,
2013-03-31 15:33:00,77.0,-99.9,30.05,ESE,106,11.0,13.0,-999,-99.99,,,-99.99,,2013-03-31 19:33:00,
2013-03-31 15:43:00,77.0,-99.9,30.06,ESE,114,13.0,20.0,-999,-99.99,,,-99.99,,2013-03-31 19:43:00,
2013-03-31 15:54:00,75.0,-99.9,30.05,SE,126,13.0,22.0,-999,-99.99,,,-99.99,,2013-03-31 19:54:00,
2013-03-31 16:03:00,75.0,-99.9,30.05,ESE,116,9.0,12.0,-999,-99.99,,,-99.99,,2013-03-31 20:03:00,
2013-03-31 16:13:00,75.0,-99.9,30.05,SE,131,7.0,9.0,-999,-99.99,,,-99.99,,2013-03-31 20:13:00,
2013-03-31 16:23:00,75.0,-99.9,30.05,SE,125,6.0,9.0,-999,-99.99,,,-99.99,,2013-03-31 20:23:00,
2013-03-31 16:34:00,75.0,-99.9,30.05,SE,143,4.0,6.0,-999,-99.99,,,-99.99,,2013-03-31 20:34:00,
2013-03-31 16:43:00,75.0,-99.9,30.05,SE,137,5.0,6.0,-999,-99.99,,,-99.99,,2013-03-31 20:43:00,
2013-03-31 16:53:00,76.0,-99.9,30.05,ESE,105,4.0,6.0,-999,-99.99,,,-99.99,,2013-03-31 20:53:00,
2013-03-31 17:03:00,76.0,-99.9,30.06,ESE,115,2.0,4.0,-999,-99.99,,,-99.99,,2013-03-31 21:03:00,
2013-03-31 17:13:00,76.0,-99.9,30.05,East,94,3.0,5.0,-999,-99.99,,,-99.99,,2013-03-31 21:13:00,
2013-03-31 17:22:00,76.0,-99.9,30.05,East,92,2.0,4.0,-999,-99.99,,,-99.99,,2013-03-31 21:22:00,
2013-03-31 17:34:00,77.0,-99.9,30.05,NE,40,2.0,3.0,-999,-99.99,,,-99.99,,2013-03-31 21:34:00,
2013-03-31 17:44:00,77.0,-99.9,30.05,East,81,9.0,11.0,-999,-99.99,,,-99.99,,2013-03-31 21:44:00,
2013-03-31 17:54:00,76.0,-99.9,30.05,East,85,17.0,19.0,-999,-99.99,,,-99.99,,2013-03-31 21:54:00,
2013-03-31 18:13:00,76.0,-99.9,30.06,ENE,70,11.0,17.0,-999,-99.99,,,-99.99,,2013-03-31 22:13:00,
2013-03-31 18:24:00,75.0,-99.9,30.06,ENE,73,16.0,22.0,-999,-99.99,,,-99.99,,2013-03-31 22:24:00,
2013-03-31 18:33:00,75.0,-99.9,30.06,ENE,75,20.0,23.0,-999,-99.99,,,-99.99,,2013-03-31 22:33:00,
2013-03-31 18:43:00,76.0,-99.9,30.06,ESE,107,15.0,17.0,-999,-99.99,,,-99.99,,2013-03-31 22:43:00,
2013-03-31 18:53:00,75.0,-99.9,30.07,East,94,13.0,17.0,-999,-99.99,,,-99.99,,2013-03-31 22:53:00,
2013-03-31 19:03:00,74.0,-99.9,30.07,East,79,5.0,14.0,-999,-99.99,,,-99.99,,2013-03-31 23:03:00,
2013-03-31 19:13:00,74.0,-99.9,30.08,East,92,11.0,13.0,-999,-99.99,,,-99.99,,2013-03-31 23:13:00,
2013-03-31 19:22:00,74.0,-99.9,30.08,East,97,12.0,13.0,-999,-99.99,,,-99.99,,2013-03-31 23:22:00,
2013-03-31 19:33:00,74.0,-99.9,30.08,ESE,109,8.0,10.0,-999,-99.99,,,-99.99,,2013-03-31 23:33:00,
2013-03-31 19:43:00,74.0,-99.9,30.08,ESE,123,5.0,8.0,-999,-99.99,,,-99.99,,2013-03-31 23:43:00,
2013-03-31 19:54:00,75.0,-99.9,30.08,ESE,118,6.0,9.0,-999,-99.99,,,-99.99,,2013-03-31 23:54:00,
2013-03-31 20:03:00,75.0,-99.9,30.08,SE,130,7.0,9.0,-999,-99.99,,,-99.99,,2013-04-01 00:03:00,
2013-03-31 20:13:00,74.0,-99.9,30.08,SE,146,11.0,13.0,-999,-99.99,,,-99.99,,2013-04-01 00:13:00,
2013-03-31 20:23:00,75.0,-99.9,30.08,SE,125,11.0,12.0,-999,-99.99,,,-99.99,,2013-04-01 00:23:00,
2013-03-31 20:33:00,75.0,-99.9,30.08,ESE,118,9.0,12.0,-999,-99.99,,,-99.99,,2013-04-01 00:33:00,
2013-03-31 20:43:00,75.0,-99.9,30.08,SE,140,8.0,11.0,-999,-99.99,,,-99.99,,2013-04-01 00:43:00,
2013-03-31 20:53:00,76.0,-99.9,30.08,East,101,8.0,10.0,-999,-99.99,,,-99.99,,2013-04-01 00:53:00,
2013-03-31 21:03:00,76.0,-99.9,30.08,ESE,116,9.0,10.0,-999,-99.99,,,-99.99,,2013-04-01 01:03:00,
2013-03-31 21:13:00,76.0,-99.9,30.08,ESE,110,12.0,15.0,-999,-99.99,,,-99.99,,2013-04-01 01:13:00,
2013-03-31 21:23:00,76.0,-99.9,30.08,East,100,12.0,15.0,-999,-99.99,,,-99.99,,2013-04-01 01:23:00,
2013-03-31 21:33:00,77.0,-99.9,30.08,East,96,13.0,18.0,-999,-99.99,,,-99.99,,2013-04-01 01:33:00,
2013-03-31 21:43:00,77.0,-99.9,30.08,ESE,103,15.0,18.0,-999,-99.99,,,-99.99,,2013-04-01 01:43:00,
2013-03-31 21:53:00,77.0,-99.9,30.08,ESE,106,17.0,20.0,-999,-99.99,,,-99.99,,2013-04-01 01:53:00,
2013-03-31 22:03:00,77.0,-99.9,30.08,East,98,15.0,19.0,-999,-99.99,,,-99.99,,2013-04-01 02:03:00,
2013-03-31 22:13:00,77.0,-99.9,30.08,East,97,15.0,19.0,-999,-99.99,,,-99.99,,2013-04-01 02:13:00,
2013-03-31 22:23:00,77.0,-99.9,30.08,East,84,17.0,20.0,-999,-99.99,,,-99.99,,2013-04-01 02:23:00,
2013-03-31 22:33:00,77.0,-99.9,30.08,East,85,19.0,23.0,-999,-99.99,,,-99.99,,2013-04-01 02:33:00,
2013-03-31 22:43:00,77.0,-99.9,30.08,East,89,18.0,22.0,-999,-99.99,,,-99.99,,2013-04-01 02:43:00,
2013-03-31 22:53:00,78.0,-99.9,30.08,East,101,15.0,23.0,-999,-99.99,,,-99.99,,2013-04-01 02:53:00,
2013-03-31 23:03:00,78.0,-99.9,30.08,East,97,16.0,21.0,-999,-99.99,,,-99.99,,2013-04-01 03:03:00,
2013-03-31 23:12:00,78.0,-99.9,30.08,East,94,15.0,22.0,-999,-99.99,,,-99.99,,2013-04-01 03:12:00,
2013-03-31 23:23:00,78.0,-99.9,30.07,East,89,15.0,19.0,-999,-99.99,,,-99.99,,2013-04-01 03:23:00,
2013-03-31 23:35:00,78.0,-99.9,30.07,East,86,22.0,26.0,-999,-99.99,,,-99.99,,2013-04-01 03:35:00,
2013-03-31 23:43:00,78.0,-99.9,30.06,East,87,23.0,29.0,-999,-99.99,,,-99.99,,2013-04-01 03:43:00,
2013-03-31 23:53:00,78.0,-99.9,30.06,East,86,21.0,28.0,-999,-99.99,,,-99.99,,2013-04-01 03:53:00,